sensor_id;sensor_type;location;lat;lon;timestamp;P1;durP1;ratioP1;P2;durP2;ratioP2
19812;SDS011;10066;48.108;11.448;2023-04-19T00:00:08;15.17;;;11.60;;
19812;SDS011;10066;48.108;11.448;2023-04-19T00:02:40;13.43;;;10.37;;
19812;SDS011;10066;48.108;11.448;2023-04-19T00:05:07;14.27;;;11.03;;
19812;SDS011;10066;48.108;11.448;2023-04-19T00:07:37;13.07;;;10.07;;
19812;SDS011;10066;48.108;11.448;2023-04-19T00:10:05;14.87;;;11.60;;
19812;SDS011;10066;48.108;11.448;2023-04-19T00:12:32;15.43;;;11.73;;
19812;SDS011;10066;48.108;11.448;2023-04-19T00:14:59;15.23;;;11.53;;
19812;SDS011;10066;48.108;11.448;2023-04-19T00:17:26;15.03;;;10.70;;
19812;SDS011;10066;48.108;11.448;2023-04-19T00:19:55;14.23;;;10.97;;
19812;SDS011;10066;48.108;11.448;2023-04-19T00:22:22;13.47;;;10.97;;
19812;SDS011;10066;48.108;11.448;2023-04-19T00:24:50;15.00;;;11.40;;
19812;SDS011;10066;48.108;11.448;2023-04-19T00:27:17;15.10;;;11.27;;
19812;SDS011;10066;48.108;11.448;2023-04-19T00:29:44;13.97;;;10.67;;
19812;SDS011;10066;48.108;11.448;2023-04-19T00:32:11;16.87;;;11.87;;
19812;SDS011;10066;48.108;11.448;2023-04-19T00:34:38;17.03;;;12.20;;
19812;SDS011;10066;48.108;11.448;2023-04-19T00:37:06;14.13;;;11.40;;
19812;SDS011;10066;48.108;11.448;2023-04-19T00:39:34;14.70;;;11.30;;
19812;SDS011;10066;48.108;11.448;2023-04-19T00:42:01;12.77;;;10.77;;
19812;SDS011;10066;48.108;11.448;2023-04-19T00:44:28;14.63;;;11.57;;
19812;SDS011;10066;48.108;11.448;2023-04-19T00:46:55;17.03;;;11.03;;
19812;SDS011;10066;48.108;11.448;2023-04-19T00:49:22;15.30;;;11.17;;
19812;SDS011;10066;48.108;11.448;2023-04-19T00:51:50;16.47;;;11.87;;
19812;SDS011;10066;48.108;11.448;2023-04-19T00:54:19;15.00;;;11.27;;
19812;SDS011;10066;48.108;11.448;2023-04-19T00:56:46;13.60;;;11.87;;
19812;SDS011;10066;48.108;11.448;2023-04-19T00:59:15;14.77;;;11.60;;
19812;SDS011;10066;48.108;11.448;2023-04-19T01:01:45;17.20;;;9.67;;
19812;SDS011;10066;48.108;11.448;2023-04-19T01:04:12;15.23;;;11.57;;
19812;SDS011;10066;48.108;11.448;2023-04-19T01:06:40;12.07;;;8.90;;
19812;SDS011;10066;48.108;11.448;2023-04-19T01:09:07;12.97;;;10.37;;
19812;SDS011;10066;48.108;11.448;2023-04-19T01:11:36;15.83;;;11.80;;
19812;SDS011;10066;48.108;11.448;2023-04-19T01:14:03;15.00;;;10.87;;
19812;SDS011;10066;48.108;11.448;2023-04-19T01:16:31;13.67;;;11.03;;
19812;SDS011;10066;48.108;11.448;2023-04-19T01:18:58;14.27;;;11.63;;
19812;SDS011;10066;48.108;11.448;2023-04-19T01:21:25;13.60;;;11.10;;
19812;SDS011;10066;48.108;11.448;2023-04-19T01:23:55;18.13;;;11.63;;
19812;SDS011;10066;48.108;11.448;2023-04-19T01:26:27;13.87;;;10.87;;
19812;SDS011;10066;48.108;11.448;2023-04-19T01:28:54;15.93;;;12.30;;
19812;SDS011;10066;48.108;11.448;2023-04-19T01:31:21;14.70;;;12.20;;
19812;SDS011;10066;48.108;11.448;2023-04-19T01:33:50;16.53;;;12.27;;
19812;SDS011;10066;48.108;11.448;2023-04-19T01:36:16;15.73;;;12.67;;
19812;SDS011;10066;48.108;11.448;2023-04-19T01:38:43;17.00;;;12.37;;
19812;SDS011;10066;48.108;11.448;2023-04-19T01:41:13;13.63;;;11.93;;
19812;SDS011;10066;48.108;11.448;2023-04-19T01:43:40;14.20;;;12.10;;
19812;SDS011;10066;48.108;11.448;2023-04-19T01:46:07;13.50;;;10.93;;
19812;SDS011;10066;48.108;11.448;2023-04-19T01:48:34;19.43;;;13.03;;
19812;SDS011;10066;48.108;11.448;2023-04-19T01:51:01;15.00;;;11.90;;
19812;SDS011;10066;48.108;11.448;2023-04-19T01:53:27;15.67;;;13.17;;
19812;SDS011;10066;48.108;11.448;2023-04-19T01:55:55;19.70;;;13.93;;
19812;SDS011;10066;48.108;11.448;2023-04-19T01:58:26;15.43;;;13.27;;
19812;SDS011;10066;48.108;11.448;2023-04-19T02:00:53;18.47;;;14.30;;
19812;SDS011;10066;48.108;11.448;2023-04-19T02:03:20;17.77;;;14.00;;
19812;SDS011;10066;48.108;11.448;2023-04-19T02:05:47;17.17;;;14.30;;
19812;SDS011;10066;48.108;11.448;2023-04-19T02:08:14;15.93;;;14.13;;
19812;SDS011;10066;48.108;11.448;2023-04-19T02:10:41;18.33;;;14.83;;
19812;SDS011;10066;48.108;11.448;2023-04-19T02:13:08;18.43;;;14.93;;
19812;SDS011;10066;48.108;11.448;2023-04-19T02:15:37;18.47;;;14.13;;
19812;SDS011;10066;48.108;11.448;2023-04-19T02:18:04;20.77;;;16.13;;
19812;SDS011;10066;48.108;11.448;2023-04-19T02:20:32;19.57;;;15.70;;
19812;SDS011;10066;48.108;11.448;2023-04-19T02:22:59;20.67;;;16.43;;
19812;SDS011;10066;48.108;11.448;2023-04-19T02:25:26;24.30;;;16.53;;
19812;SDS011;10066;48.108;11.448;2023-04-19T02:27:52;22.50;;;17.43;;
19812;SDS011;10066;48.108;11.448;2023-04-19T02:30:19;19.50;;;16.63;;
19812;SDS011;10066;48.108;11.448;2023-04-19T02:32:48;21.17;;;16.97;;
19812;SDS011;10066;48.108;11.448;2023-04-19T02:35:15;24.07;;;17.33;;
19812;SDS011;10066;48.108;11.448;2023-04-19T02:37:43;23.70;;;17.43;;
19812;SDS011;10066;48.108;11.448;2023-04-19T02:40:10;23.47;;;18.90;;
19812;SDS011;10066;48.108;11.448;2023-04-19T02:42:37;23.30;;;18.43;;
19812;SDS011;10066;48.108;11.448;2023-04-19T02:45:04;25.43;;;17.73;;
19812;SDS011;10066;48.108;11.448;2023-04-19T02:47:32;25.37;;;18.60;;
19812;SDS011;10066;48.108;11.448;2023-04-19T02:50:01;24.97;;;20.37;;
19812;SDS011;10066;48.108;11.448;2023-04-19T02:52:30;24.37;;;19.43;;
19812;SDS011;10066;48.108;11.448;2023-04-19T02:55:00;27.37;;;18.57;;
19812;SDS011;10066;48.108;11.448;2023-04-19T02:57:28;26.67;;;18.33;;
19812;SDS011;10066;48.108;11.448;2023-04-19T02:59:55;24.93;;;16.37;;
19812;SDS011;10066;48.108;11.448;2023-04-19T03:02:22;25.53;;;20.13;;
19812;SDS011;10066;48.108;11.448;2023-04-19T03:04:50;30.07;;;20.67;;
19812;SDS011;10066;48.108;11.448;2023-04-19T03:07:19;31.90;;;21.87;;
19812;SDS011;10066;48.108;11.448;2023-04-19T03:09:46;30.57;;;21.70;;
19812;SDS011;10066;48.108;11.448;2023-04-19T03:12:13;32.17;;;21.00;;
19812;SDS011;10066;48.108;11.448;2023-04-19T03:14:40;32.97;;;21.60;;
19812;SDS011;10066;48.108;11.448;2023-04-19T03:17:07;32.17;;;21.97;;
19812;SDS011;10066;48.108;11.448;2023-04-19T03:19:34;33.10;;;22.17;;
19812;SDS011;10066;48.108;11.448;2023-04-19T03:22:02;31.67;;;22.47;;
19812;SDS011;10066;48.108;11.448;2023-04-19T03:24:30;33.93;;;22.97;;
19812;SDS011;10066;48.108;11.448;2023-04-19T03:26:57;35.17;;;23.30;;
19812;SDS011;10066;48.108;11.448;2023-04-19T03:29:25;36.03;;;23.50;;
19812;SDS011;10066;48.108;11.448;2023-04-19T03:31:52;35.67;;;23.67;;
19812;SDS011;10066;48.108;11.448;2023-04-19T03:34:19;32.80;;;23.63;;
19812;SDS011;10066;48.108;11.448;2023-04-19T03:36:46;33.73;;;24.07;;
19812;SDS011;10066;48.108;11.448;2023-04-19T03:39:13;34.13;;;23.60;;
19812;SDS011;10066;48.108;11.448;2023-04-19T03:41:41;29.73;;;22.90;;
19812;SDS011;10066;48.108;11.448;2023-04-19T03:44:08;33.00;;;23.10;;
19812;SDS011;10066;48.108;11.448;2023-04-19T03:46:38;34.20;;;23.00;;
19812;SDS011;10066;48.108;11.448;2023-04-19T03:49:05;38.83;;;24.97;;
19812;SDS011;10066;48.108;11.448;2023-04-19T03:51:32;35.47;;;25.13;;
19812;SDS011;10066;48.108;11.448;2023-04-19T03:53:59;35.17;;;25.07;;
19812;SDS011;10066;48.108;11.448;2023-04-19T03:56:26;35.03;;;24.23;;
19812;SDS011;10066;48.108;11.448;2023-04-19T03:58:54;34.50;;;24.37;;
19812;SDS011;10066;48.108;11.448;2023-04-19T04:01:23;32.73;;;24.40;;
19812;SDS011;10066;48.108;11.448;2023-04-19T04:03:51;33.53;;;24.57;;
19812;SDS011;10066;48.108;11.448;2023-04-19T04:06:18;34.87;;;25.37;;
19812;SDS011;10066;48.108;11.448;2023-04-19T04:08:46;33.67;;;23.13;;
19812;SDS011;10066;48.108;11.448;2023-04-19T04:11:13;34.77;;;23.67;;
19812;SDS011;10066;48.108;11.448;2023-04-19T04:13:42;33.70;;;24.10;;
19812;SDS011;10066;48.108;11.448;2023-04-19T04:16:12;33.77;;;24.47;;
19812;SDS011;10066;48.108;11.448;2023-04-19T04:18:39;33.50;;;25.13;;
19812;SDS011;10066;48.108;11.448;2023-04-19T04:21:06;35.30;;;24.47;;
19812;SDS011;10066;48.108;11.448;2023-04-19T04:23:33;30.43;;;21.93;;
19812;SDS011;10066;48.108;11.448;2023-04-19T04:26:02;34.57;;;25.20;;
19812;SDS011;10066;48.108;11.448;2023-04-19T04:28:30;33.70;;;24.67;;
19812;SDS011;10066;48.108;11.448;2023-04-19T04:30:57;37.97;;;25.40;;
19812;SDS011;10066;48.108;11.448;2023-04-19T04:33:27;35.57;;;23.20;;
19812;SDS011;10066;48.108;11.448;2023-04-19T04:35:54;35.73;;;24.20;;
19812;SDS011;10066;48.108;11.448;2023-04-19T04:38:23;38.07;;;25.00;;
19812;SDS011;10066;48.108;11.448;2023-04-19T04:40:50;37.63;;;25.13;;
19812;SDS011;10066;48.108;11.448;2023-04-19T04:43:18;35.40;;;24.20;;
19812;SDS011;10066;48.108;11.448;2023-04-19T04:45:46;37.03;;;26.60;;
19812;SDS011;10066;48.108;11.448;2023-04-19T04:48:13;34.43;;;22.80;;
19812;SDS011;10066;48.108;11.448;2023-04-19T04:50:43;37.97;;;24.97;;
19812;SDS011;10066;48.108;11.448;2023-04-19T04:53:10;35.43;;;25.60;;
19812;SDS011;10066;48.108;11.448;2023-04-19T04:55:37;38.30;;;26.63;;
19812;SDS011;10066;48.108;11.448;2023-04-19T04:58:04;41.37;;;27.43;;
19812;SDS011;10066;48.108;11.448;2023-04-19T05:00:31;41.53;;;25.57;;
19812;SDS011;10066;48.108;11.448;2023-04-19T05:02:59;40.57;;;26.87;;
19812;SDS011;10066;48.108;11.448;2023-04-19T05:05:26;39.70;;;26.03;;
19812;SDS011;10066;48.108;11.448;2023-04-19T05:07:55;39.33;;;26.07;;
19812;SDS011;10066;48.108;11.448;2023-04-19T05:10:22;42.63;;;26.60;;
19812;SDS011;10066;48.108;11.448;2023-04-19T05:12:49;39.73;;;26.13;;
19812;SDS011;10066;48.108;11.448;2023-04-19T05:15:16;38.40;;;25.27;;
19812;SDS011;10066;48.108;11.448;2023-04-19T05:17:43;39.30;;;25.70;;
19812;SDS011;10066;48.108;11.448;2023-04-19T05:20:10;38.13;;;26.50;;
19812;SDS011;10066;48.108;11.448;2023-04-19T05:22:38;41.73;;;25.80;;
19812;SDS011;10066;48.108;11.448;2023-04-19T05:25:08;41.83;;;26.20;;
19812;SDS011;10066;48.108;11.448;2023-04-19T05:27:35;39.53;;;24.80;;
19812;SDS011;10066;48.108;11.448;2023-04-19T05:30:02;38.90;;;26.27;;
19812;SDS011;10066;48.108;11.448;2023-04-19T05:32:30;35.53;;;24.57;;
19812;SDS011;10066;48.108;11.448;2023-04-19T05:34:57;39.43;;;26.57;;
19812;SDS011;10066;48.108;11.448;2023-04-19T05:37:24;42.57;;;27.30;;
19812;SDS011;10066;48.108;11.448;2023-04-19T05:39:54;36.87;;;24.97;;
19812;SDS011;10066;48.108;11.448;2023-04-19T05:42:23;38.13;;;24.50;;
19812;SDS011;10066;48.108;11.448;2023-04-19T05:44:50;38.27;;;25.67;;
19812;SDS011;10066;48.108;11.448;2023-04-19T05:47:17;37.77;;;24.50;;
19812;SDS011;10066;48.108;11.448;2023-04-19T05:49:45;35.53;;;24.30;;
19812;SDS011;10066;48.108;11.448;2023-04-19T05:52:12;36.83;;;24.70;;
19812;SDS011;10066;48.108;11.448;2023-04-19T05:54:39;35.57;;;23.87;;
19812;SDS011;10066;48.108;11.448;2023-04-19T05:57:07;36.60;;;24.93;;
19812;SDS011;10066;48.108;11.448;2023-04-19T05:59:36;34.93;;;23.20;;
19812;SDS011;10066;48.108;11.448;2023-04-19T06:02:06;35.40;;;23.27;;
19812;SDS011;10066;48.108;11.448;2023-04-19T06:04:37;33.97;;;24.70;;
19812;SDS011;10066;48.108;11.448;2023-04-19T06:07:04;40.50;;;24.20;;
19812;SDS011;10066;48.108;11.448;2023-04-19T06:09:32;41.63;;;25.13;;
19812;SDS011;10066;48.108;11.448;2023-04-19T06:11:59;40.63;;;24.07;;
19812;SDS011;10066;48.108;11.448;2023-04-19T06:14:26;37.90;;;23.53;;
19812;SDS011;10066;48.108;11.448;2023-04-19T06:16:56;39.87;;;24.77;;
19812;SDS011;10066;48.108;11.448;2023-04-19T06:19:23;41.87;;;25.17;;
19812;SDS011;10066;48.108;11.448;2023-04-19T06:21:50;43.83;;;25.30;;
19812;SDS011;10066;48.108;11.448;2023-04-19T06:24:17;40.37;;;22.30;;
19812;SDS011;10066;48.108;11.448;2023-04-19T06:26:47;40.23;;;23.43;;
19812;SDS011;10066;48.108;11.448;2023-04-19T06:29:14;41.00;;;24.30;;
19812;SDS011;10066;48.108;11.448;2023-04-19T06:31:42;40.47;;;25.37;;
19812;SDS011;10066;48.108;11.448;2023-04-19T06:34:11;42.27;;;25.87;;
19812;SDS011;10066;48.108;11.448;2023-04-19T06:36:38;44.53;;;23.37;;
19812;SDS011;10066;48.108;11.448;2023-04-19T06:39:05;39.67;;;25.23;;
19812;SDS011;10066;48.108;11.448;2023-04-19T06:41:32;39.73;;;24.70;;
19812;SDS011;10066;48.108;11.448;2023-04-19T06:43:59;40.07;;;24.23;;
19812;SDS011;10066;48.108;11.448;2023-04-19T06:46:27;43.10;;;24.40;;
19812;SDS011;10066;48.108;11.448;2023-04-19T06:48:53;36.67;;;23.53;;
19812;SDS011;10066;48.108;11.448;2023-04-19T06:51:22;37.97;;;24.00;;
19812;SDS011;10066;48.108;11.448;2023-04-19T06:53:49;34.43;;;23.03;;
19812;SDS011;10066;48.108;11.448;2023-04-19T06:56:16;39.17;;;23.77;;
19812;SDS011;10066;48.108;11.448;2023-04-19T06:58:43;40.47;;;24.47;;
19812;SDS011;10066;48.108;11.448;2023-04-19T07:01:10;35.90;;;22.50;;
19812;SDS011;10066;48.108;11.448;2023-04-19T07:03:38;40.33;;;24.77;;
19812;SDS011;10066;48.108;11.448;2023-04-19T07:06:05;40.87;;;24.87;;
19812;SDS011;10066;48.108;11.448;2023-04-19T07:08:33;35.73;;;23.10;;
19812;SDS011;10066;48.108;11.448;2023-04-19T07:11:00;36.83;;;23.13;;
19812;SDS011;10066;48.108;11.448;2023-04-19T07:13:27;36.73;;;23.07;;
19812;SDS011;10066;48.108;11.448;2023-04-19T07:15:54;35.07;;;21.87;;
19812;SDS011;10066;48.108;11.448;2023-04-19T07:18:21;33.17;;;20.87;;
19812;SDS011;10066;48.108;11.448;2023-04-19T07:20:48;42.73;;;23.57;;
19812;SDS011;10066;48.108;11.448;2023-04-19T07:23:15;38.93;;;24.97;;
19812;SDS011;10066;48.108;11.448;2023-04-19T07:25:44;46.50;;;26.20;;
19812;SDS011;10066;48.108;11.448;2023-04-19T07:28:11;39.90;;;23.23;;
19812;SDS011;10066;48.108;11.448;2023-04-19T07:30:39;34.50;;;22.67;;
19812;SDS011;10066;48.108;11.448;2023-04-19T07:33:10;37.30;;;21.87;;
19812;SDS011;10066;48.108;11.448;2023-04-19T07:35:37;30.83;;;22.17;;
19812;SDS011;10066;48.108;11.448;2023-04-19T07:38:04;36.03;;;23.80;;
19812;SDS011;10066;48.108;11.448;2023-04-19T07:40:31;34.23;;;21.47;;
19812;SDS011;10066;48.108;11.448;2023-04-19T07:43:00;30.87;;;20.60;;
19812;SDS011;10066;48.108;11.448;2023-04-19T07:45:28;27.53;;;20.57;;
19812;SDS011;10066;48.108;11.448;2023-04-19T07:47:56;30.97;;;20.40;;
19812;SDS011;10066;48.108;11.448;2023-04-19T07:50:23;30.60;;;19.87;;
19812;SDS011;10066;48.108;11.448;2023-04-19T07:52:51;26.83;;;19.33;;
19812;SDS011;10066;48.108;11.448;2023-04-19T07:55:18;25.83;;;19.07;;
19812;SDS011;10066;48.108;11.448;2023-04-19T07:57:45;27.43;;;19.40;;
19812;SDS011;10066;48.108;11.448;2023-04-19T08:00:14;27.80;;;19.47;;
19812;SDS011;10066;48.108;11.448;2023-04-19T08:02:42;25.70;;;19.33;;
19812;SDS011;10066;48.108;11.448;2023-04-19T08:05:11;23.93;;;18.03;;
19812;SDS011;10066;48.108;11.448;2023-04-19T08:07:38;23.63;;;17.20;;
19812;SDS011;10066;48.108;11.448;2023-04-19T08:10:05;24.40;;;17.33;;
19812;SDS011;10066;48.108;11.448;2023-04-19T08:12:33;25.77;;;17.07;;
19812;SDS011;10066;48.108;11.448;2023-04-19T08:15:00;23.30;;;16.83;;
19812;SDS011;10066;48.108;11.448;2023-04-19T08:17:29;20.97;;;16.37;;
19812;SDS011;10066;48.108;11.448;2023-04-19T08:19:56;21.47;;;15.80;;
19812;SDS011;10066;48.108;11.448;2023-04-19T08:22:23;21.73;;;16.37;;
19812;SDS011;10066;48.108;11.448;2023-04-19T08:24:51;24.57;;;17.10;;
19812;SDS011;10066;48.108;11.448;2023-04-19T08:27:18;20.90;;;15.73;;
19812;SDS011;10066;48.108;11.448;2023-04-19T08:29:46;22.57;;;15.53;;
19812;SDS011;10066;48.108;11.448;2023-04-19T08:32:13;22.27;;;15.40;;
19812;SDS011;10066;48.108;11.448;2023-04-19T08:34:41;20.13;;;14.20;;
19812;SDS011;10066;48.108;11.448;2023-04-19T08:37:08;21.10;;;15.10;;
19812;SDS011;10066;48.108;11.448;2023-04-19T08:39:35;16.63;;;13.70;;
19812;SDS011;10066;48.108;11.448;2023-04-19T08:42:02;19.60;;;14.43;;
19812;SDS011;10066;48.108;11.448;2023-04-19T08:44:31;19.03;;;14.53;;
19812;SDS011;10066;48.108;11.448;2023-04-19T08:46:59;20.00;;;15.20;;
19812;SDS011;10066;48.108;11.448;2023-04-19T08:49:26;19.20;;;14.00;;
19812;SDS011;10066;48.108;11.448;2023-04-19T08:51:56;18.47;;;14.63;;
19812;SDS011;10066;48.108;11.448;2023-04-19T08:54:23;25.10;;;15.30;;
19812;SDS011;10066;48.108;11.448;2023-04-19T08:56:51;19.70;;;14.03;;
19812;SDS011;10066;48.108;11.448;2023-04-19T08:59:18;21.13;;;15.47;;
19812;SDS011;10066;48.108;11.448;2023-04-19T09:01:45;20.83;;;15.50;;
19812;SDS011;10066;48.108;11.448;2023-04-19T09:04:12;22.90;;;15.77;;
19812;SDS011;10066;48.108;11.448;2023-04-19T09:06:40;24.43;;;16.00;;
19812;SDS011;10066;48.108;11.448;2023-04-19T09:09:15;19.73;;;14.70;;
19812;SDS011;10066;48.108;11.448;2023-04-19T09:11:43;23.30;;;15.33;;
19812;SDS011;10066;48.108;11.448;2023-04-19T09:14:12;20.87;;;14.60;;
19812;SDS011;10066;48.108;11.448;2023-04-19T09:16:39;21.23;;;15.10;;
19812;SDS011;10066;48.108;11.448;2023-04-19T09:19:06;21.40;;;15.73;;
19812;SDS011;10066;48.108;11.448;2023-04-19T09:21:34;21.17;;;15.80;;
19812;SDS011;10066;48.108;11.448;2023-04-19T09:24:01;22.83;;;15.23;;
19812;SDS011;10066;48.108;11.448;2023-04-19T09:26:30;22.03;;;16.33;;
19812;SDS011;10066;48.108;11.448;2023-04-19T09:28:58;20.13;;;15.90;;
19812;SDS011;10066;48.108;11.448;2023-04-19T09:31:26;18.40;;;13.73;;
19812;SDS011;10066;48.108;11.448;2023-04-19T09:33:54;21.97;;;15.87;;
19812;SDS011;10066;48.108;11.448;2023-04-19T09:36:25;24.10;;;14.50;;
19812;SDS011;10066;48.108;11.448;2023-04-19T09:38:54;18.30;;;14.87;;
19812;SDS011;10066;48.108;11.448;2023-04-19T09:41:22;21.27;;;15.53;;
19812;SDS011;10066;48.108;11.448;2023-04-19T09:43:50;20.87;;;15.40;;
19812;SDS011;10066;48.108;11.448;2023-04-19T09:46:30;22.97;;;15.13;;
19812;SDS011;10066;48.108;11.448;2023-04-19T09:49:14;20.60;;;14.53;;
19812;SDS011;10066;48.108;11.448;2023-04-19T09:51:42;22.17;;;14.60;;
19812;SDS011;10066;48.108;11.448;2023-04-19T09:54:10;19.70;;;14.57;;
19812;SDS011;10066;48.108;11.448;2023-04-19T09:56:38;19.97;;;14.23;;
19812;SDS011;10066;48.108;11.448;2023-04-19T09:59:07;19.07;;;12.67;;
19812;SDS011;10066;48.108;11.448;2023-04-19T10:01:37;16.90;;;12.63;;
19812;SDS011;10066;48.108;11.448;2023-04-19T10:04:06;18.47;;;12.87;;
19812;SDS011;10066;48.108;11.448;2023-04-19T10:06:34;18.77;;;13.13;;
19812;SDS011;10066;48.108;11.448;2023-04-19T10:09:04;19.33;;;13.20;;
19812;SDS011;10066;48.108;11.448;2023-04-19T10:11:33;17.10;;;12.57;;
19812;SDS011;10066;48.108;11.448;2023-04-19T10:14:03;17.17;;;12.37;;
19812;SDS011;10066;48.108;11.448;2023-04-19T10:16:32;17.60;;;13.23;;
19812;SDS011;10066;48.108;11.448;2023-04-19T10:19:01;15.43;;;11.40;;
19812;SDS011;10066;48.108;11.448;2023-04-19T10:21:29;13.57;;;8.63;;
19812;SDS011;10066;48.108;11.448;2023-04-19T10:23:58;19.20;;;13.00;;
19812;SDS011;10066;48.108;11.448;2023-04-19T10:26:26;16.03;;;11.17;;
19812;SDS011;10066;48.108;11.448;2023-04-19T10:28:57;13.10;;;8.27;;
19812;SDS011;10066;48.108;11.448;2023-04-19T10:31:25;15.93;;;11.80;;
19812;SDS011;10066;48.108;11.448;2023-04-19T10:33:53;19.40;;;13.30;;
19812;SDS011;10066;48.108;11.448;2023-04-19T10:36:21;21.70;;;13.43;;
19812;SDS011;10066;48.108;11.448;2023-04-19T10:38:52;21.17;;;12.07;;
19812;SDS011;10066;48.108;11.448;2023-04-19T10:41:19;20.67;;;14.00;;
19812;SDS011;10066;48.108;11.448;2023-04-19T10:43:47;20.93;;;13.27;;
19812;SDS011;10066;48.108;11.448;2023-04-19T10:46:35;21.63;;;13.77;;
19812;SDS011;10066;48.108;11.448;2023-04-19T10:49:07;13.40;;;9.83;;
19812;SDS011;10066;48.108;11.448;2023-04-19T10:51:37;17.37;;;13.10;;
19812;SDS011;10066;48.108;11.448;2023-04-19T10:54:06;17.77;;;13.23;;
19812;SDS011;10066;48.108;11.448;2023-04-19T10:59:29;16.37;;;9.60;;
19812;SDS011;10066;48.108;11.448;2023-04-19T11:01:57;19.97;;;11.37;;
19812;SDS011;10066;48.108;11.448;2023-04-19T11:07:25;18.13;;;13.20;;
19812;SDS011;10066;48.108;11.448;2023-04-19T11:09:52;15.50;;;10.63;;
19812;SDS011;10066;48.108;11.448;2023-04-19T11:12:19;18.27;;;12.83;;
19812;SDS011;10066;48.108;11.448;2023-04-19T11:14:47;15.00;;;8.93;;
19812;SDS011;10066;48.108;11.448;2023-04-19T11:17:16;11.47;;;9.37;;
19812;SDS011;10066;48.108;11.448;2023-04-19T11:19:51;9.43;;;6.40;;
19812;SDS011;10066;48.108;11.448;2023-04-19T11:22:24;6.90;;;5.73;;
19812;SDS011;10066;48.108;11.448;2023-04-19T11:24:56;14.17;;;10.07;;
19812;SDS011;10066;48.108;11.448;2023-04-19T11:27:29;13.00;;;10.50;;
19812;SDS011;10066;48.108;11.448;2023-04-19T11:30:00;7.33;;;4.70;;
19812;SDS011;10066;48.108;11.448;2023-04-19T11:32:28;12.67;;;8.87;;
19812;SDS011;10066;48.108;11.448;2023-04-19T11:34:55;15.13;;;10.93;;
19812;SDS011;10066;48.108;11.448;2023-04-19T11:37:22;17.23;;;12.20;;
19812;SDS011;10066;48.108;11.448;2023-04-19T11:39:50;11.67;;;8.60;;
19812;SDS011;10066;48.108;11.448;2023-04-19T11:42:19;12.90;;;8.43;;
19812;SDS011;10066;48.108;11.448;2023-04-19T11:44:49;18.63;;;13.37;;
19812;SDS011;10066;48.108;11.448;2023-04-19T11:47:17;17.87;;;10.63;;
19812;SDS011;10066;48.108;11.448;2023-04-19T11:49:44;12.77;;;8.23;;
19812;SDS011;10066;48.108;11.448;2023-04-19T11:52:20;14.40;;;10.27;;
19812;SDS011;10066;48.108;11.448;2023-04-19T11:54:48;18.23;;;11.57;;
19812;SDS011;10066;48.108;11.448;2023-04-19T11:57:25;26.03;;;16.07;;
19812;SDS011;10066;48.108;11.448;2023-04-19T12:00:02;20.13;;;13.13;;
19812;SDS011;10066;48.108;11.448;2023-04-19T12:02:35;17.43;;;11.83;;
19812;SDS011;10066;48.108;11.448;2023-04-19T12:05:08;15.83;;;10.50;;
19812;SDS011;10066;48.108;11.448;2023-04-19T12:07:36;26.87;;;17.80;;
19812;SDS011;10066;48.108;11.448;2023-04-19T12:10:18;29.10;;;17.90;;
19812;SDS011;10066;48.108;11.448;2023-04-19T12:12:48;24.33;;;16.90;;
19812;SDS011;10066;48.108;11.448;2023-04-19T12:15:15;16.53;;;11.83;;
19812;SDS011;10066;48.108;11.448;2023-04-19T12:17:55;19.43;;;14.23;;
19812;SDS011;10066;48.108;11.448;2023-04-19T12:20:29;22.37;;;15.37;;
19812;SDS011;10066;48.108;11.448;2023-04-19T12:22:57;25.87;;;15.97;;
19812;SDS011;10066;48.108;11.448;2023-04-19T12:25:28;25.67;;;17.50;;
19812;SDS011;10066;48.108;11.448;2023-04-19T12:27:57;29.30;;;19.03;;
19812;SDS011;10066;48.108;11.448;2023-04-19T12:30:24;27.30;;;16.00;;
19812;SDS011;10066;48.108;11.448;2023-04-19T12:32:52;28.90;;;18.23;;
19812;SDS011;10066;48.108;11.448;2023-04-19T12:35:20;15.87;;;8.80;;
19812;SDS011;10066;48.108;11.448;2023-04-19T12:37:47;13.00;;;8.40;;
19812;SDS011;10066;48.108;11.448;2023-04-19T12:40:14;20.70;;;12.73;;
19812;SDS011;10066;48.108;11.448;2023-04-19T12:42:41;12.87;;;8.97;;
19812;SDS011;10066;48.108;11.448;2023-04-19T12:45:10;14.03;;;9.03;;
19812;SDS011;10066;48.108;11.448;2023-04-19T12:47:38;12.67;;;8.80;;
19812;SDS011;10066;48.108;11.448;2023-04-19T12:50:05;14.57;;;10.47;;
19812;SDS011;10066;48.108;11.448;2023-04-19T12:52:33;14.80;;;9.77;;
19812;SDS011;10066;48.108;11.448;2023-04-19T12:55:00;17.20;;;11.10;;
19812;SDS011;10066;48.108;11.448;2023-04-19T12:57:28;8.43;;;5.73;;
19812;SDS011;10066;48.108;11.448;2023-04-19T12:59:55;11.33;;;7.63;;
19812;SDS011;10066;48.108;11.448;2023-04-19T13:02:23;18.20;;;12.17;;
19812;SDS011;10066;48.108;11.448;2023-04-19T13:04:50;21.53;;;12.60;;
19812;SDS011;10066;48.108;11.448;2023-04-19T13:07:17;25.03;;;13.90;;
19812;SDS011;10066;48.108;11.448;2023-04-19T13:09:44;18.33;;;12.23;;
19812;SDS011;10066;48.108;11.448;2023-04-19T13:12:11;17.60;;;10.73;;
19812;SDS011;10066;48.108;11.448;2023-04-19T13:14:38;18.83;;;11.03;;
19812;SDS011;10066;48.108;11.448;2023-04-19T13:17:05;19.33;;;12.07;;
19812;SDS011;10066;48.108;11.448;2023-04-19T13:19:33;24.00;;;13.10;;
19812;SDS011;10066;48.108;11.448;2023-04-19T13:22:00;21.20;;;12.20;;
19812;SDS011;10066;48.108;11.448;2023-04-19T13:24:27;15.23;;;9.30;;
19812;SDS011;10066;48.108;11.448;2023-04-19T13:26:54;21.17;;;12.57;;
19812;SDS011;10066;48.108;11.448;2023-04-19T13:29:21;21.40;;;12.27;;
19812;SDS011;10066;48.108;11.448;2023-04-19T13:31:48;24.07;;;14.80;;
19812;SDS011;10066;48.108;11.448;2023-04-19T13:34:15;27.27;;;15.53;;
19812;SDS011;10066;48.108;11.448;2023-04-19T13:36:44;29.40;;;15.17;;
19812;SDS011;10066;48.108;11.448;2023-04-19T13:39:11;25.77;;;15.70;;
19812;SDS011;10066;48.108;11.448;2023-04-19T13:41:38;31.87;;;16.10;;
19812;SDS011;10066;48.108;11.448;2023-04-19T13:44:04;26.07;;;13.93;;
19812;SDS011;10066;48.108;11.448;2023-04-19T13:46:32;23.80;;;13.17;;
19812;SDS011;10066;48.108;11.448;2023-04-19T13:48:59;24.63;;;11.23;;
19812;SDS011;10066;48.108;11.448;2023-04-19T13:51:26;14.80;;;8.70;;
19812;SDS011;10066;48.108;11.448;2023-04-19T13:53:54;24.63;;;12.90;;
19812;SDS011;10066;48.108;11.448;2023-04-19T13:56:21;25.37;;;11.73;;
19812;SDS011;10066;48.108;11.448;2023-04-19T13:58:48;18.77;;;9.77;;
19812;SDS011;10066;48.108;11.448;2023-04-19T14:01:15;21.57;;;7.43;;
19812;SDS011;10066;48.108;11.448;2023-04-19T14:03:42;18.03;;;8.40;;
19812;SDS011;10066;48.108;11.448;2023-04-19T14:06:09;16.50;;;8.57;;
19812;SDS011;10066;48.108;11.448;2023-04-19T14:08:36;4.93;;;2.73;;
19812;SDS011;10066;48.108;11.448;2023-04-19T14:11:04;11.87;;;6.67;;
19812;SDS011;10066;48.108;11.448;2023-04-19T14:13:31;6.40;;;2.97;;
19812;SDS011;10066;48.108;11.448;2023-04-19T14:15:58;11.00;;;4.37;;
19812;SDS011;10066;48.108;11.448;2023-04-19T14:18:25;9.40;;;3.93;;
19812;SDS011;10066;48.108;11.448;2023-04-19T14:20:52;14.00;;;6.90;;